createdAt,value
2023-05-06T00:00:25.189Z,9.60
2023-05-06T00:02:52.581Z,9.70
2023-05-06T00:05:19.828Z,9.70
2023-05-06T00:07:46.577Z,9.60
2023-05-06T00:10:13.639Z,9.60
2023-05-06T00:12:40.520Z,9.60
2023-05-06T00:15:07.990Z,9.60
2023-05-06T00:17:43.535Z,9.60
2023-05-06T00:20:10.966Z,9.60
2023-05-06T00:22:38.119Z,9.50
2023-05-06T00:25:04.959Z,9.60
2023-05-06T00:27:31.820Z,9.60
2023-05-06T00:29:58.555Z,9.60
2023-05-06T00:32:25.364Z,9.60
2023-05-06T00:34:52.149Z,9.50
2023-05-06T00:37:20.112Z,9.50
2023-05-06T00:39:46.837Z,9.50
2023-05-06T00:42:13.852Z,9.50
2023-05-06T00:44:40.655Z,9.50
2023-05-06T00:47:07.906Z,9.50
2023-05-06T00:49:34.627Z,9.50
2023-05-06T00:52:01.648Z,9.60
2023-05-06T00:54:29.864Z,9.60
2023-05-06T00:56:56.719Z,9.60
2023-05-06T00:59:23.465Z,9.60
2023-05-06T01:01:52.283Z,9.70
2023-05-06T01:04:19.080Z,9.70
2023-05-06T01:06:50.985Z,9.70
2023-05-06T01:09:22.562Z,9.70
2023-05-06T01:11:50.781Z,9.70
2023-05-06T01:14:33.133Z,9.80
2023-05-06T01:17:04.120Z,9.80
2023-05-06T01:19:46.714Z,9.80
2023-05-06T01:22:13.771Z,9.70
2023-05-06T01:24:41.420Z,9.70
2023-05-06T01:27:09.071Z,9.60
2023-05-06T01:29:36.975Z,9.60
2023-05-06T01:32:19.121Z,9.60
2023-05-06T01:35:08.901Z,9.60
2023-05-06T01:37:55.712Z,9.60
2023-05-06T01:40:24.975Z,9.70
2023-05-06T01:42:52.216Z,9.70
2023-05-06T01:45:19.900Z,9.70
2023-05-06T01:47:47.109Z,9.60
2023-05-06T01:50:13.983Z,9.70
2023-05-06T01:52:41.222Z,9.60
2023-05-06T01:55:08.493Z,9.70
2023-05-06T01:57:35.845Z,9.70
2023-05-06T02:00:02.673Z,9.70
2023-05-06T02:02:39.007Z,9.70
2023-05-06T02:05:06.587Z,9.70
2023-05-06T02:07:35.073Z,9.70
2023-05-06T02:10:01.825Z,9.70
2023-05-06T02:12:29.186Z,9.80
2023-05-06T02:14:56.541Z,9.80
2023-05-06T02:17:23.302Z,9.70
2023-05-06T02:19:50.041Z,9.70
2023-05-06T02:22:17.877Z,9.70
2023-05-06T02:24:44.914Z,9.70
2023-05-06T02:27:12.987Z,9.70
2023-05-06T02:29:39.699Z,9.60
2023-05-06T02:32:07.012Z,9.60
2023-05-06T02:34:33.848Z,9.70
2023-05-06T02:37:00.605Z,9.70
2023-05-06T02:39:27.373Z,9.70
2023-05-06T02:41:54.114Z,9.80
2023-05-06T02:44:20.885Z,9.80
2023-05-06T02:46:47.644Z,9.80
2023-05-06T02:49:14.352Z,9.70
2023-05-06T02:51:41.120Z,9.70
2023-05-06T02:54:07.887Z,9.60
2023-05-06T02:56:35.301Z,9.70
2023-05-06T02:59:02.134Z,9.70
2023-05-06T03:01:29.079Z,9.70
2023-05-06T03:03:55.876Z,9.60
2023-05-06T03:06:22.684Z,9.60
2023-05-06T03:08:49.471Z,9.60
2023-05-06T03:11:16.430Z,9.60
2023-05-06T03:13:43.213Z,9.50
2023-05-06T03:16:14.226Z,9.60
2023-05-06T03:18:43.980Z,9.60
2023-05-06T03:21:12.600Z,9.70
2023-05-06T03:23:41.151Z,9.70
2023-05-06T03:26:07.929Z,9.70
2023-05-06T03:28:34.714Z,9.70
2023-05-06T03:31:03.381Z,9.60
2023-05-06T03:33:31.254Z,9.60
2023-05-06T03:35:58.655Z,9.60
2023-05-06T03:38:25.424Z,9.60
2023-05-06T03:40:58.532Z,9.60
2023-05-06T03:43:25.902Z,9.70
2023-05-06T03:45:56.524Z,9.60
2023-05-06T03:48:23.963Z,9.60
2023-05-06T03:50:51.569Z,9.60
2023-05-06T03:53:19.467Z,9.60
2023-05-06T03:55:48.273Z,9.50
2023-05-06T03:58:15.128Z,9.50
2023-05-06T04:00:44.306Z,9.50
2023-05-06T04:03:11.678Z,9.50
2023-05-06T04:05:43.726Z,9.50
2023-05-06T04:08:12.858Z,9.50
2023-05-06T04:10:40.631Z,9.50
2023-05-06T04:13:14.419Z,9.50
2023-05-06T04:15:43.987Z,9.50
2023-05-06T04:18:19.120Z,9.50
2023-05-06T04:20:54.090Z,9.50
2023-05-06T04:23:21.420Z,9.60
2023-05-06T04:25:49.076Z,9.60
2023-05-06T04:28:17.706Z,9.60
2023-05-06T04:30:48.125Z,9.60
2023-05-06T04:33:15.785Z,9.60
2023-05-06T04:35:49.730Z,9.60
2023-05-06T04:38:17.571Z,9.70
2023-05-06T04:40:44.543Z,9.70
2023-05-06T04:43:12.098Z,9.60
2023-05-06T04:45:40.155Z,9.60
2023-05-06T04:48:08.903Z,9.60
2023-05-06T04:50:35.828Z,9.60
2023-05-06T04:53:02.707Z,9.60
2023-05-06T04:55:29.634Z,9.70
2023-05-06T04:57:56.417Z,9.70
2023-05-06T05:00:23.204Z,9.70
2023-05-06T05:02:50.268Z,9.70
2023-05-06T05:05:18.036Z,9.70
2023-05-06T05:07:47.758Z,9.70
2023-05-06T05:10:14.825Z,9.80
2023-05-06T05:12:41.814Z,9.70
2023-05-06T05:15:09.160Z,9.60
2023-05-06T05:17:36.216Z,9.60
2023-05-06T05:20:04.017Z,9.60
2023-05-06T05:22:31.442Z,9.60
2023-05-06T05:24:58.198Z,9.60
2023-05-06T05:27:25.545Z,9.60
2023-05-06T05:29:54.312Z,9.60
2023-05-06T05:32:21.797Z,9.60
2023-05-06T05:34:48.822Z,9.60
2023-05-06T05:37:15.619Z,9.60
2023-05-06T05:39:42.319Z,9.60
2023-05-06T05:42:10.688Z,9.60
2023-05-06T05:44:40.821Z,9.60
2023-05-06T05:47:07.865Z,9.60
2023-05-06T05:49:36.153Z,9.60
2023-05-06T05:52:04.134Z,9.70
2023-05-06T05:54:32.376Z,9.70
2023-05-06T05:56:59.481Z,9.70
2023-05-06T05:59:28.649Z,9.70
2023-05-06T06:02:01.152Z,9.70
2023-05-06T06:04:28.137Z,9.70
2023-05-06T06:06:57.803Z,9.70
2023-05-06T06:09:24.944Z,9.70
2023-05-06T06:11:52.597Z,9.70
2023-05-06T06:14:20.072Z,9.60
2023-05-06T06:16:48.551Z,9.60
2023-05-06T06:19:15.938Z,9.70
2023-05-06T06:21:45.349Z,9.70
2023-05-06T06:24:12.809Z,9.70
2023-05-06T06:26:39.665Z,9.60
2023-05-06T06:29:06.718Z,9.60
2023-05-06T06:31:38.319Z,9.70
2023-05-06T06:34:08.893Z,9.70
2023-05-06T06:36:36.023Z,9.70
2023-05-06T06:39:02.960Z,9.70
2023-05-06T06:41:29.849Z,9.80
2023-05-06T06:43:56.602Z,9.80
2023-05-06T06:46:25.998Z,9.80
2023-05-06T06:48:52.807Z,9.80
2023-05-06T06:51:19.780Z,9.90
2023-05-06T06:53:49.056Z,9.80
2023-05-06T06:56:16.157Z,9.80
2023-05-06T06:58:42.963Z,9.90
2023-05-06T07:01:10.291Z,9.90
2023-05-06T07:03:38.355Z,9.90
2023-05-06T07:06:08.616Z,9.90
2023-05-06T07:08:35.510Z,9.90
2023-05-06T07:11:02.275Z,9.90
2023-05-06T07:13:29.038Z,9.90
2023-05-06T07:15:55.902Z,9.90
2023-05-06T07:18:23.084Z,9.90
2023-05-06T07:20:49.880Z,9.90
2023-05-06T07:23:16.744Z,9.80
2023-05-06T07:25:43.611Z,9.80
2023-05-06T07:28:10.865Z,9.80
2023-05-06T07:30:38.450Z,9.90
2023-05-06T07:33:05.279Z,9.90
2023-05-06T07:35:32.312Z,10.00
2023-05-06T07:37:59.171Z,10.00
2023-05-06T07:40:26.261Z,10.00
2023-05-06T07:42:53.045Z,10.00
2023-05-06T07:45:23.342Z,10.00
2023-05-06T07:47:50.553Z,9.90
2023-05-06T07:50:17.368Z,10.00
2023-05-06T07:52:44.108Z,10.00
2023-05-06T07:55:11.596Z,10.10
2023-05-06T07:57:38.672Z,10.00
2023-05-06T08:00:06.129Z,10.10
2023-05-06T08:02:44.178Z,10.20
2023-05-06T08:05:11.466Z,10.20
2023-05-06T08:07:39.656Z,10.20
2023-05-06T08:10:06.957Z,10.20
2023-05-06T08:12:35.454Z,10.20
2023-05-06T08:15:02.579Z,10.40
2023-05-06T08:17:29.359Z,10.30
2023-05-06T08:19:56.254Z,10.30
2023-05-06T08:22:23.225Z,10.30
2023-05-06T08:24:49.938Z,10.30
2023-05-06T08:27:16.784Z,10.20
2023-05-06T08:29:43.548Z,10.30
2023-05-06T08:32:10.406Z,10.30
2023-05-06T08:34:37.634Z,10.40
2023-05-06T08:37:04.604Z,10.40
2023-05-06T08:39:31.861Z,10.50
2023-05-06T08:41:59.609Z,10.50
2023-05-06T08:44:26.985Z,10.50
2023-05-06T08:46:53.706Z,10.50
2023-05-06T08:49:21.094Z,10.50
2023-05-06T08:51:49.411Z,10.50
2023-05-06T08:54:17.405Z,10.40
2023-05-06T08:56:53.220Z,10.40
2023-05-06T08:59:23.318Z,10.50
2023-05-06T09:01:50.136Z,10.50
2023-05-06T09:04:18.363Z,10.60
2023-05-06T09:06:45.479Z,10.60
2023-05-06T09:09:14.905Z,10.60
2023-05-06T09:11:41.863Z,10.60
2023-05-06T09:14:13.231Z,10.60
2023-05-06T09:16:45.740Z,10.50
2023-05-06T09:19:13.808Z,10.60
2023-05-06T09:21:45.243Z,10.50
2023-05-06T09:24:13.098Z,10.50
2023-05-06T09:26:40.610Z,10.60
2023-05-06T09:29:12.789Z,10.60
2023-05-06T09:31:43.877Z,10.70
2023-05-06T09:34:11.187Z,10.80
2023-05-06T09:36:44.404Z,10.70
2023-05-06T09:39:18.772Z,10.70
2023-05-06T09:41:45.884Z,10.80
2023-05-06T09:44:12.764Z,10.80
2023-05-06T09:46:44.921Z,10.90
2023-05-06T09:49:12.095Z,10.90
2023-05-06T09:51:39.574Z,10.90
2023-05-06T09:54:06.585Z,10.90
2023-05-06T09:56:33.948Z,10.90
2023-05-06T09:59:04.226Z,11.00
2023-05-06T10:01:36.507Z,11.00
2023-05-06T10:04:06.254Z,11.00
2023-05-06T10:06:35.543Z,11.00
2023-05-06T10:09:02.651Z,11.00
2023-05-06T10:11:31.366Z,11.10
2023-05-06T10:13:59.821Z,11.00
2023-05-06T10:16:29.119Z,11.00
2023-05-06T10:18:56.188Z,10.90
2023-05-06T10:21:35.505Z,11.00
2023-05-06T10:24:07.110Z,11.00
2023-05-06T10:26:36.786Z,11.10
2023-05-06T10:29:04.856Z,11.10
2023-05-06T10:31:32.685Z,11.10
2023-05-06T10:34:02.949Z,11.00
2023-05-06T10:36:32.125Z,11.00
2023-05-06T10:39:03.603Z,11.00
2023-05-06T10:41:30.870Z,11.00
2023-05-06T10:43:57.867Z,11.10
2023-05-06T10:46:26.412Z,11.10
2023-05-06T10:49:08.894Z,11.10
2023-05-06T10:51:43.078Z,11.10
2023-05-06T10:54:22.607Z,11.00
2023-05-06T10:56:50.258Z,11.10
2023-05-06T10:59:29.707Z,11.10
2023-05-06T11:01:56.560Z,11.20
2023-05-06T11:04:23.342Z,11.30
2023-05-06T11:06:51.030Z,11.30
2023-05-06T11:09:17.916Z,11.30
2023-05-06T11:12:04.345Z,11.30
2023-05-06T11:14:37.852Z,11.40
2023-05-06T11:17:09.016Z,11.40
2023-05-06T11:19:37.390Z,11.40
2023-05-06T11:22:05.046Z,11.40
2023-05-06T11:24:38.328Z,11.30
2023-05-06T11:27:05.654Z,11.30
2023-05-06T11:29:32.550Z,11.30
2023-05-06T11:31:59.417Z,11.30
2023-05-06T11:34:27.368Z,11.40
2023-05-06T11:36:58.516Z,11.40
2023-05-06T11:39:30.299Z,11.40
2023-05-06T11:42:00.787Z,11.40
2023-05-06T11:44:28.447Z,11.30
2023-05-06T11:46:59.145Z,11.30
2023-05-06T11:49:26.961Z,11.20
2023-05-06T11:51:54.494Z,11.20
2023-05-06T11:54:22.875Z,11.20
2023-05-06T11:56:51.538Z,11.30
2023-05-06T11:59:25.595Z,11.30
2023-05-06T12:01:52.382Z,11.30
2023-05-06T12:04:19.082Z,11.40
2023-05-06T12:06:46.107Z,11.30
2023-05-06T12:09:13.040Z,11.30
2023-05-06T12:11:42.018Z,11.30
2023-05-06T12:14:10.194Z,11.30
2023-05-06T12:16:37.637Z,11.40
2023-05-06T12:19:05.806Z,11.50
2023-05-06T12:21:33.079Z,11.50
2023-05-06T12:24:00.757Z,11.40
2023-05-06T12:26:28.100Z,11.20
2023-05-06T12:29:05.707Z,11.20
2023-05-06T12:31:33.615Z,11.20
2023-05-06T12:34:01.382Z,11.30
2023-05-06T12:36:28.336Z,11.20
2023-05-06T12:38:56.422Z,11.20
2023-05-06T12:41:25.044Z,11.20
2023-05-06T12:43:52.959Z,11.20
2023-05-06T12:46:21.980Z,11.20
2023-05-06T12:48:59.010Z,11.20
2023-05-06T12:51:27.014Z,11.20
2023-05-06T12:53:54.211Z,11.20
2023-05-06T12:56:22.582Z,11.30
2023-05-06T12:59:01.524Z,11.30
2023-05-06T13:01:28.472Z,11.30
2023-05-06T13:03:57.108Z,11.30
2023-05-06T13:06:25.269Z,11.30
2023-05-06T13:08:52.007Z,11.40
2023-05-06T13:11:18.858Z,11.40
2023-05-06T13:13:45.720Z,11.50
2023-05-06T13:16:12.539Z,11.40
2023-05-06T13:18:39.282Z,11.40
2023-05-06T13:21:06.070Z,11.50
2023-05-06T13:23:35.064Z,11.60
2023-05-06T13:26:05.822Z,11.60
2023-05-06T13:28:36.834Z,11.60
2023-05-06T13:31:03.979Z,11.50
2023-05-06T13:33:30.955Z,11.50
2023-05-06T13:35:57.818Z,11.60
2023-05-06T13:38:24.652Z,11.70
2023-05-06T13:40:52.111Z,11.80
2023-05-06T13:43:19.327Z,11.70
2023-05-06T13:45:46.559Z,11.80
2023-05-06T13:48:13.823Z,11.80
2023-05-06T13:50:44.527Z,11.80
2023-05-06T13:53:12.056Z,11.70
2023-05-06T13:55:38.870Z,11.70
2023-05-06T13:58:07.979Z,11.70
2023-05-06T14:00:35.911Z,11.80
2023-05-06T14:03:02.830Z,11.70
2023-05-06T14:05:29.730Z,11.60
2023-05-06T14:07:56.540Z,11.70
2023-05-06T14:10:25.845Z,11.60
2023-05-06T14:12:52.881Z,11.60
2023-05-06T14:15:19.738Z,11.60
2023-05-06T14:17:46.724Z,11.60
2023-05-06T14:20:13.700Z,11.60
2023-05-06T14:22:41.264Z,11.60
2023-05-06T14:25:08.791Z,11.70
2023-05-06T14:27:36.209Z,11.70
2023-05-06T14:30:08.275Z,11.70
2023-05-06T14:32:36.372Z,11.70
2023-05-06T14:35:03.461Z,11.70
2023-05-06T14:37:30.371Z,11.60
2023-05-06T14:39:57.436Z,11.60
2023-05-06T14:42:24.229Z,11.50
2023-05-06T14:44:51.062Z,11.50
2023-05-06T14:47:17.900Z,11.40
2023-05-06T14:49:44.743Z,11.50
2023-05-06T14:52:11.616Z,11.50
2023-05-06T14:54:42.466Z,11.50
2023-05-06T14:57:09.737Z,11.50
2023-05-06T14:59:37.286Z,11.40
2023-05-06T15:02:05.974Z,11.30
2023-05-06T15:04:32.873Z,11.30
2023-05-06T15:06:59.626Z,11.40
2023-05-06T15:09:26.756Z,11.40
2023-05-06T15:11:53.619Z,11.50
2023-05-06T15:14:20.578Z,11.50
2023-05-06T15:16:48.483Z,11.40
2023-05-06T15:19:15.244Z,11.40
2023-05-06T15:21:42.003Z,11.40
2023-05-06T15:24:08.830Z,11.30
2023-05-06T15:26:35.766Z,11.20
2023-05-06T15:29:02.591Z,11.20
2023-05-06T15:31:31.032Z,11.30
2023-05-06T15:34:00.395Z,11.30
2023-05-06T15:36:27.680Z,11.30
2023-05-06T15:39:00.097Z,11.30
2023-05-06T15:41:31.808Z,11.20
2023-05-06T15:43:59.368Z,11.20
2023-05-06T15:46:26.787Z,11.10
2023-05-06T15:49:12.421Z,11.20
2023-05-06T15:51:40.590Z,11.20
2023-05-06T15:54:07.584Z,11.20
2023-05-06T15:56:40.556Z,11.20
2023-05-06T15:59:08.781Z,11.20
2023-05-06T16:02:16.464Z,11.20
2023-05-06T16:04:23.572Z,11.20
2023-05-06T16:06:50.525Z,11.20
2023-05-06T16:09:17.219Z,11.20
2023-05-06T16:11:44.177Z,11.20
2023-05-06T16:14:10.891Z,11.10
2023-05-06T16:16:38.957Z,11.10
2023-05-06T16:19:05.929Z,11.10
2023-05-06T16:21:32.616Z,11.10
2023-05-06T16:24:00.736Z,11.20
2023-05-06T16:26:27.455Z,11.30
2023-05-06T16:28:54.751Z,11.30
2023-05-06T16:31:21.552Z,11.30
2023-05-06T16:33:49.363Z,11.30
2023-05-06T16:36:16.198Z,11.30
2023-05-06T16:38:43.197Z,11.30
2023-05-06T16:41:09.915Z,11.30
2023-05-06T16:43:36.646Z,11.20
2023-05-06T16:46:03.504Z,11.10
2023-05-06T16:48:30.512Z,11.10
2023-05-06T16:50:58.063Z,11.20
2023-05-06T16:53:27.813Z,11.20
2023-05-06T16:55:55.400Z,11.20
2023-05-06T16:58:22.279Z,11.10
2023-05-06T17:00:51.013Z,11.10
2023-05-06T17:03:17.886Z,11.20
2023-05-06T17:05:44.618Z,11.10
2023-05-06T17:08:12.007Z,11.00
2023-05-06T17:10:39.015Z,11.00
2023-05-06T17:13:05.921Z,11.00
2023-05-06T17:15:32.950Z,11.10
2023-05-06T17:17:59.871Z,11.10
2023-05-06T17:20:27.361Z,11.10
2023-05-06T17:22:55.751Z,11.10
2023-05-06T17:25:23.301Z,11.00
2023-05-06T17:27:50.102Z,11.00
2023-05-06T17:30:16.959Z,11.00
2023-05-06T17:32:43.813Z,11.00
2023-05-06T17:35:10.811Z,11.00
2023-05-06T17:37:37.758Z,11.00
2023-05-06T17:40:05.267Z,11.00
2023-05-06T17:42:33.648Z,10.90
2023-05-06T17:45:00.524Z,10.90
2023-05-06T17:47:30.332Z,10.90
2023-05-06T17:49:57.630Z,10.90
2023-05-06T17:52:26.085Z,10.90
2023-05-06T17:55:06.192Z,10.90
2023-05-06T17:57:37.957Z,10.90
2023-05-06T18:00:05.499Z,10.80
2023-05-06T18:02:38.700Z,10.80
2023-05-06T18:05:06.366Z,10.80
2023-05-06T18:07:33.193Z,10.80
2023-05-06T18:10:00.001Z,10.80
2023-05-06T18:12:27.325Z,10.90
2023-05-06T18:14:55.349Z,10.90
2023-05-06T18:17:22.161Z,10.90
2023-05-06T18:19:48.986Z,10.90
2023-05-06T18:22:15.719Z,10.80
2023-05-06T18:24:42.539Z,10.80
2023-05-06T18:27:09.357Z,10.90
2023-05-06T18:29:36.790Z,10.80
2023-05-06T18:32:06.738Z,10.70
2023-05-06T18:34:34.615Z,10.70
2023-05-06T18:37:01.406Z,10.80
2023-05-06T18:39:29.579Z,10.80
2023-05-06T18:41:56.300Z,10.80
2023-05-06T18:44:23.077Z,10.80
2023-05-06T18:46:49.947Z,10.80
2023-05-06T18:49:16.835Z,10.80
2023-05-06T18:51:43.616Z,10.70
2023-05-06T18:54:10.466Z,10.70
2023-05-06T18:56:37.485Z,10.80
2023-05-06T18:59:04.345Z,10.80
2023-05-06T19:01:31.208Z,10.80
2023-05-06T19:03:58.356Z,10.80
2023-05-06T19:06:25.253Z,10.80
2023-05-06T19:08:53.703Z,10.80
2023-05-06T19:11:21.133Z,10.80
2023-05-06T19:13:47.887Z,10.80
2023-05-06T19:16:14.831Z,10.80
2023-05-06T19:18:41.831Z,10.80
2023-05-06T19:21:09.271Z,10.80
2023-05-06T19:23:36.545Z,10.90
2023-05-06T19:26:06.264Z,10.80
2023-05-06T19:28:33.485Z,10.70
2023-05-06T19:31:00.280Z,10.70
2023-05-06T19:33:27.213Z,10.70
2023-05-06T19:35:53.913Z,10.70
2023-05-06T19:38:21.282Z,10.70
2023-05-06T19:40:48.132Z,10.70
2023-05-06T19:43:14.999Z,10.70
2023-05-06T19:45:42.004Z,10.70
2023-05-06T19:48:08.960Z,10.70
2023-05-06T19:50:36.782Z,10.70
2023-05-06T19:53:03.839Z,10.70
2023-05-06T19:55:31.049Z,10.70
2023-05-06T19:57:57.964Z,10.60
2023-05-06T20:00:27.288Z,10.50
2023-05-06T20:02:57.993Z,10.50
2023-05-06T20:05:30.955Z,10.50
2023-05-06T20:07:59.766Z,10.50
2023-05-06T20:10:27.288Z,10.40
2023-05-06T20:12:56.071Z,10.50
2023-05-06T20:15:24.313Z,10.40
2023-05-06T20:17:51.478Z,10.40
2023-05-06T20:20:19.407Z,10.50
2023-05-06T20:22:46.339Z,10.50
2023-05-06T20:25:15.901Z,10.60
2023-05-06T20:27:46.340Z,10.60
2023-05-06T20:30:13.380Z,10.50
2023-05-06T20:32:40.752Z,10.50
2023-05-06T20:35:09.981Z,10.50
2023-05-06T20:37:37.075Z,10.50
2023-05-06T20:40:04.983Z,10.50
2023-05-06T20:42:31.895Z,10.40
2023-05-06T20:45:03.011Z,10.50
2023-05-06T20:47:29.868Z,10.50
2023-05-06T20:49:56.723Z,10.50
2023-05-06T20:52:23.565Z,10.50
2023-05-06T20:54:50.301Z,10.50
2023-05-06T20:57:17.338Z,10.40
2023-05-06T20:59:44.412Z,10.50
2023-05-06T21:02:11.447Z,10.50
2023-05-06T21:04:38.324Z,10.40
2023-05-06T21:07:05.199Z,10.50
2023-05-06T21:09:31.964Z,10.50
2023-05-06T21:11:58.992Z,10.50
2023-05-06T21:14:26.200Z,10.50
2023-05-06T21:16:53.536Z,10.40
2023-05-06T21:19:20.622Z,10.40
2023-05-06T21:21:47.367Z,10.40
2023-05-06T21:24:14.594Z,10.40
2023-05-06T21:26:41.410Z,10.40
2023-05-06T21:29:08.235Z,10.40
2023-05-06T21:31:35.073Z,10.40
2023-05-06T21:34:03.441Z,10.30
2023-05-06T21:36:31.128Z,10.30
2023-05-06T21:39:05.481Z,10.40
2023-05-06T21:41:34.313Z,10.40
2023-05-06T21:44:01.855Z,10.40
2023-05-06T21:46:28.727Z,10.40
2023-05-06T21:48:55.738Z,10.40
2023-05-06T21:51:22.774Z,10.40
2023-05-06T21:53:50.164Z,10.40
2023-05-06T21:56:20.223Z,10.50
2023-05-06T21:58:47.003Z,10.50
2023-05-06T22:01:13.801Z,10.50
2023-05-06T22:03:40.741Z,10.50
2023-05-06T22:06:07.725Z,10.50
2023-05-06T22:08:34.778Z,10.50
2023-05-06T22:11:01.790Z,10.40
2023-05-06T22:13:28.859Z,10.40
2023-05-06T22:15:55.736Z,10.40
2023-05-06T22:18:22.577Z,10.30
2023-05-06T22:20:50.744Z,10.30
2023-05-06T22:23:19.558Z,10.40
2023-05-06T22:25:46.619Z,10.40
2023-05-06T22:28:13.388Z,10.40
2023-05-06T22:30:40.206Z,10.30
2023-05-06T22:33:07.134Z,10.40
2023-05-06T22:35:33.965Z,10.30
2023-05-06T22:38:01.389Z,10.30
2023-05-06T22:40:30.311Z,10.30
2023-05-06T22:42:59.585Z,10.30
2023-05-06T22:45:27.824Z,10.30
2023-05-06T22:47:57.713Z,10.30
2023-05-06T22:50:25.008Z,10.30
2023-05-06T22:52:52.013Z,10.30
2023-05-06T22:55:19.068Z,10.30
2023-05-06T22:57:49.717Z,10.30
2023-05-06T23:00:17.448Z,10.30
2023-05-06T23:02:44.284Z,10.40
2023-05-06T23:05:12.525Z,10.40
2023-05-06T23:07:39.620Z,10.20
2023-05-06T23:10:07.017Z,10.20
2023-05-06T23:12:34.326Z,10.20
2023-05-06T23:15:01.129Z,10.20
2023-05-06T23:17:28.155Z,10.30
2023-05-06T23:19:54.921Z,10.30
2023-05-06T23:22:21.735Z,10.20
2023-05-06T23:24:48.784Z,10.20
2023-05-06T23:27:15.857Z,10.20
2023-05-06T23:29:42.782Z,10.20
2023-05-06T23:32:09.694Z,10.10
2023-05-06T23:34:38.303Z,10.00
2023-05-06T23:37:05.240Z,9.90
2023-05-06T23:39:34.596Z,9.80
2023-05-06T23:42:02.415Z,9.80
2023-05-06T23:44:30.053Z,9.80
2023-05-06T23:46:57.533Z,9.90
2023-05-06T23:49:24.479Z,9.90
2023-05-06T23:51:51.287Z,9.90
2023-05-06T23:54:19.275Z,9.80
2023-05-06T23:56:46.047Z,9.80
2023-05-06T23:59:12.820Z,9.80
